sensor_id;sensor_type;location;lat;lon;timestamp;P1;durP1;ratioP1;P2;durP2;ratioP2
20480;SDS011;10399;50.754;3.366;2022-08-04T00:02:12;13.55;;;3.67;;
20480;SDS011;10399;50.754;3.366;2022-08-04T00:04:47;11.35;;;3.50;;
20480;SDS011;10399;50.754;3.366;2022-08-04T00:07:25;9.52;;;3.00;;
20480;SDS011;10399;50.754;3.366;2022-08-04T00:10:15;6.35;;;2.63;;
20480;SDS011;10399;50.754;3.366;2022-08-04T00:12:50;7.10;;;3.08;;
20480;SDS011;10399;50.754;3.366;2022-08-04T00:15:20;6.72;;;3.38;;
20480;SDS011;10399;50.754;3.366;2022-08-04T00:17:53;8.20;;;2.70;;
20480;SDS011;10399;50.754;3.366;2022-08-04T00:20:29;8.60;;;3.00;;
20480;SDS011;10399;50.754;3.366;2022-08-04T00:23:00;5.90;;;2.67;;
20480;SDS011;10399;50.754;3.366;2022-08-04T00:25:28;11.75;;;2.53;;
20480;SDS011;10399;50.754;3.366;2022-08-04T00:27:55;12.43;;;3.25;;
20480;SDS011;10399;50.754;3.366;2022-08-04T00:30:23;6.60;;;2.80;;
20480;SDS011;10399;50.754;3.366;2022-08-04T00:32:50;5.80;;;3.17;;
20480;SDS011;10399;50.754;3.366;2022-08-04T00:35:18;7.20;;;3.13;;
20480;SDS011;10399;50.754;3.366;2022-08-04T00:37:45;12.25;;;2.80;;
20480;SDS011;10399;50.754;3.366;2022-08-04T00:40:59;7.90;;;3.00;;
20480;SDS011;10399;50.754;3.366;2022-08-04T00:43:22;8.23;;;3.45;;
20480;SDS011;10399;50.754;3.366;2022-08-04T00:48:55;8.10;;;3.08;;
20480;SDS011;10399;50.754;3.366;2022-08-04T01:00:17;8.80;;;3.33;;
20480;SDS011;10399;50.754;3.366;2022-08-04T01:10:43;4.85;;;2.65;;
20480;SDS011;10399;50.754;3.366;2022-08-04T01:16:01;12.05;;;2.97;;
20480;SDS011;10399;50.754;3.366;2022-08-04T01:27:05;6.53;;;2.72;;
20480;SDS011;10399;50.754;3.366;2022-08-04T01:29:52;6.82;;;2.20;;
20480;SDS011;10399;50.754;3.366;2022-08-04T01:35:00;10.48;;;2.78;;
20480;SDS011;10399;50.754;3.366;2022-08-04T01:40:04;10.60;;;2.75;;
20480;SDS011;10399;50.754;3.366;2022-08-04T01:42:33;10.30;;;2.65;;
20480;SDS011;10399;50.754;3.366;2022-08-04T01:45:06;9.00;;;2.70;;
20480;SDS011;10399;50.754;3.366;2022-08-04T01:47:36;10.20;;;3.05;;
20480;SDS011;10399;50.754;3.366;2022-08-04T01:50:09;7.07;;;2.20;;
20480;SDS011;10399;50.754;3.366;2022-08-04T01:52:38;10.35;;;2.40;;
20480;SDS011;10399;50.754;3.366;2022-08-04T01:55:08;6.25;;;2.50;;
20480;SDS011;10399;50.754;3.366;2022-08-04T01:57:41;5.25;;;2.42;;
20480;SDS011;10399;50.754;3.366;2022-08-04T02:00:10;7.75;;;2.38;;
20480;SDS011;10399;50.754;3.366;2022-08-04T02:02:38;7.07;;;2.55;;
20480;SDS011;10399;50.754;3.366;2022-08-04T02:05:08;10.52;;;2.97;;
20480;SDS011;10399;50.754;3.366;2022-08-04T02:07:49;12.90;;;2.85;;
20480;SDS011;10399;50.754;3.366;2022-08-04T02:13:09;6.15;;;1.88;;
20480;SDS011;10399;50.754;3.366;2022-08-04T02:21:27;11.88;;;2.50;;
20480;SDS011;10399;50.754;3.366;2022-08-04T02:24:11;10.63;;;2.50;;
20480;SDS011;10399;50.754;3.366;2022-08-04T02:26:41;6.45;;;2.10;;
20480;SDS011;10399;50.754;3.366;2022-08-04T02:29:18;6.63;;;2.25;;
20480;SDS011;10399;50.754;3.366;2022-08-04T02:32:20;7.13;;;2.22;;
20480;SDS011;10399;50.754;3.366;2022-08-04T02:35:10;7.35;;;2.30;;
20480;SDS011;10399;50.754;3.366;2022-08-04T02:37:50;6.43;;;2.65;;
20480;SDS011;10399;50.754;3.366;2022-08-04T02:40:28;6.10;;;2.08;;
20480;SDS011;10399;50.754;3.366;2022-08-04T02:42:57;6.93;;;2.38;;
20480;SDS011;10399;50.754;3.366;2022-08-04T02:45:25;6.35;;;2.05;;
20480;SDS011;10399;50.754;3.366;2022-08-04T02:47:54;4.85;;;1.98;;
20480;SDS011;10399;50.754;3.366;2022-08-04T02:50:43;6.55;;;2.35;;
20480;SDS011;10399;50.754;3.366;2022-08-04T02:53:11;7.55;;;1.60;;
20480;SDS011;10399;50.754;3.366;2022-08-04T02:55:43;6.68;;;1.63;;
20480;SDS011;10399;50.754;3.366;2022-08-04T02:58:18;5.05;;;1.38;;
20480;SDS011;10399;50.754;3.366;2022-08-04T03:00:47;4.95;;;1.60;;
20480;SDS011;10399;50.754;3.366;2022-08-04T03:03:24;5.40;;;1.92;;
20480;SDS011;10399;50.754;3.366;2022-08-04T03:26:19;5.20;;;1.45;;
20480;SDS011;10399;50.754;3.366;2022-08-04T03:29:14;9.63;;;1.40;;
20480;SDS011;10399;50.754;3.366;2022-08-04T03:37:56;6.65;;;1.70;;
20480;SDS011;10399;50.754;3.366;2022-08-04T03:58:30;3.97;;;2.35;;
20480;SDS011;10399;50.754;3.366;2022-08-04T04:25:33;12.82;;;4.45;;
20480;SDS011;10399;50.754;3.366;2022-08-04T04:36:43;14.65;;;5.15;;
20480;SDS011;10399;50.754;3.366;2022-08-04T04:59:02;11.63;;;4.70;;
20480;SDS011;10399;50.754;3.366;2022-08-04T05:10:04;14.15;;;5.47;;
20480;SDS011;10399;50.754;3.366;2022-08-04T05:15:58;15.60;;;5.80;;
20480;SDS011;10399;50.754;3.366;2022-08-04T05:18:33;10.45;;;5.57;;
20480;SDS011;10399;50.754;3.366;2022-08-04T05:23:50;13.38;;;6.60;;
20480;SDS011;10399;50.754;3.366;2022-08-04T05:26:22;13.43;;;7.78;;
20480;SDS011;10399;50.754;3.366;2022-08-04T05:28:56;16.90;;;7.05;;
20480;SDS011;10399;50.754;3.366;2022-08-04T05:31:32;14.20;;;7.85;;
20480;SDS011;10399;50.754;3.366;2022-08-04T05:34:07;16.90;;;8.20;;
20480;SDS011;10399;50.754;3.366;2022-08-04T05:36:36;20.58;;;10.27;;
20480;SDS011;10399;50.754;3.366;2022-08-04T05:39:11;22.33;;;11.25;;
20480;SDS011;10399;50.754;3.366;2022-08-04T05:41:59;35.25;;;17.20;;
20480;SDS011;10399;50.754;3.366;2022-08-04T05:44:30;42.00;;;20.90;;
20480;SDS011;10399;50.754;3.366;2022-08-04T05:46:59;39.50;;;17.50;;
20480;SDS011;10399;50.754;3.366;2022-08-04T05:49:27;32.63;;;15.73;;
20480;SDS011;10399;50.754;3.366;2022-08-04T05:51:56;36.03;;;15.32;;
20480;SDS011;10399;50.754;3.366;2022-08-04T05:54:31;30.85;;;15.13;;
20480;SDS011;10399;50.754;3.366;2022-08-04T05:57:01;39.17;;;15.98;;
20480;SDS011;10399;50.754;3.366;2022-08-04T05:59:29;45.90;;;19.77;;
20480;SDS011;10399;50.754;3.366;2022-08-04T06:01:57;45.60;;;21.58;;
20480;SDS011;10399;50.754;3.366;2022-08-04T06:04:34;48.95;;;19.85;;
20480;SDS011;10399;50.754;3.366;2022-08-04T06:07:04;47.97;;;19.95;;
20480;SDS011;10399;50.754;3.366;2022-08-04T06:09:32;46.13;;;19.10;;
20480;SDS011;10399;50.754;3.366;2022-08-04T06:12:00;43.78;;;18.25;;
20480;SDS011;10399;50.754;3.366;2022-08-04T06:14:31;47.70;;;18.83;;
20480;SDS011;10399;50.754;3.366;2022-08-04T06:17:05;47.85;;;19.13;;
20480;SDS011;10399;50.754;3.366;2022-08-04T06:19:53;47.70;;;19.67;;
20480;SDS011;10399;50.754;3.366;2022-08-04T06:22:42;57.80;;;20.92;;
20480;SDS011;10399;50.754;3.366;2022-08-04T06:25:13;59.22;;;22.58;;
20480;SDS011;10399;50.754;3.366;2022-08-04T06:27:44;56.33;;;21.00;;
20480;SDS011;10399;50.754;3.366;2022-08-04T06:30:12;58.22;;;22.80;;
20480;SDS011;10399;50.754;3.366;2022-08-04T06:32:41;65.07;;;23.08;;
20480;SDS011;10399;50.754;3.366;2022-08-04T06:35:30;72.38;;;24.98;;
20480;SDS011;10399;50.754;3.366;2022-08-04T06:38:02;71.25;;;25.30;;
20480;SDS011;10399;50.754;3.366;2022-08-04T06:40:30;67.72;;;26.35;;
20480;SDS011;10399;50.754;3.366;2022-08-04T06:43:00;81.70;;;28.55;;
20480;SDS011;10399;50.754;3.366;2022-08-04T06:45:29;79.80;;;27.75;;
20480;SDS011;10399;50.754;3.366;2022-08-04T06:48:00;78.90;;;29.08;;
20480;SDS011;10399;50.754;3.366;2022-08-04T06:50:28;75.85;;;29.40;;
20480;SDS011;10399;50.754;3.366;2022-08-04T06:53:16;85.53;;;28.98;;
20480;SDS011;10399;50.754;3.366;2022-08-04T06:55:45;79.90;;;29.05;;
20480;SDS011;10399;50.754;3.366;2022-08-04T06:58:14;78.60;;;30.35;;
20480;SDS011;10399;50.754;3.366;2022-08-04T07:00:42;75.35;;;29.35;;
20480;SDS011;10399;50.754;3.366;2022-08-04T07:03:12;78.03;;;28.65;;
20480;SDS011;10399;50.754;3.366;2022-08-04T07:05:41;74.03;;;29.27;;
20480;SDS011;10399;50.754;3.366;2022-08-04T07:08:09;79.40;;;29.90;;
20480;SDS011;10399;50.754;3.366;2022-08-04T07:10:37;73.25;;;30.60;;
20480;SDS011;10399;50.754;3.366;2022-08-04T07:13:05;75.15;;;29.65;;
20480;SDS011;10399;50.754;3.366;2022-08-04T07:15:34;71.82;;;29.20;;
20480;SDS011;10399;50.754;3.366;2022-08-04T07:18:04;80.47;;;30.55;;
20480;SDS011;10399;50.754;3.366;2022-08-04T07:20:31;74.88;;;29.67;;
20480;SDS011;10399;50.754;3.366;2022-08-04T07:23:02;73.72;;;30.35;;
20480;SDS011;10399;50.754;3.366;2022-08-04T07:25:32;80.15;;;31.17;;
20480;SDS011;10399;50.754;3.366;2022-08-04T07:28:23;75.97;;;30.13;;
20480;SDS011;10399;50.754;3.366;2022-08-04T07:30:53;76.80;;;30.73;;
20480;SDS011;10399;50.754;3.366;2022-08-04T07:33:22;75.53;;;30.20;;
20480;SDS011;10399;50.754;3.366;2022-08-04T07:35:52;78.50;;;28.52;;
20480;SDS011;10399;50.754;3.366;2022-08-04T07:38:36;72.57;;;29.60;;
20480;SDS011;10399;50.754;3.366;2022-08-04T07:41:19;76.28;;;28.38;;
20480;SDS011;10399;50.754;3.366;2022-08-04T07:44:03;77.03;;;27.73;;
20480;SDS011;10399;50.754;3.366;2022-08-04T07:46:32;65.25;;;26.38;;
20480;SDS011;10399;50.754;3.366;2022-08-04T07:48:59;71.03;;;26.42;;
20480;SDS011;10399;50.754;3.366;2022-08-04T07:51:27;63.53;;;26.67;;
20480;SDS011;10399;50.754;3.366;2022-08-04T07:53:56;62.97;;;24.10;;
20480;SDS011;10399;50.754;3.366;2022-08-04T07:56:28;66.05;;;25.95;;
20480;SDS011;10399;50.754;3.366;2022-08-04T07:58:56;49.55;;;22.48;;
20480;SDS011;10399;50.754;3.366;2022-08-04T08:01:23;58.63;;;25.30;;
20480;SDS011;10399;50.754;3.366;2022-08-04T08:03:51;60.50;;;24.80;;
20480;SDS011;10399;50.754;3.366;2022-08-04T08:06:21;52.00;;;23.60;;
20480;SDS011;10399;50.754;3.366;2022-08-04T08:08:59;52.75;;;23.13;;
20480;SDS011;10399;50.754;3.366;2022-08-04T08:11:43;51.33;;;22.10;;
20480;SDS011;10399;50.754;3.366;2022-08-04T08:14:32;49.88;;;22.00;;
20480;SDS011;10399;50.754;3.366;2022-08-04T08:17:01;44.80;;;21.08;;
20480;SDS011;10399;50.754;3.366;2022-08-04T08:19:32;43.55;;;19.83;;
20480;SDS011;10399;50.754;3.366;2022-08-04T08:22:00;45.80;;;20.50;;
20480;SDS011;10399;50.754;3.366;2022-08-04T08:24:28;50.75;;;21.15;;
20480;SDS011;10399;50.754;3.366;2022-08-04T08:27:00;55.08;;;23.00;;
20480;SDS011;10399;50.754;3.366;2022-08-04T08:29:29;54.03;;;22.17;;
20480;SDS011;10399;50.754;3.366;2022-08-04T08:32:00;50.45;;;21.25;;
20480;SDS011;10399;50.754;3.366;2022-08-04T08:34:34;49.72;;;21.40;;
20480;SDS011;10399;50.754;3.366;2022-08-04T08:37:08;47.35;;;22.25;;
20480;SDS011;10399;50.754;3.366;2022-08-04T08:52:19;44.60;;;20.20;;
20480;SDS011;10399;50.754;3.366;2022-08-04T08:55:12;45.97;;;21.10;;
20480;SDS011;10399;50.754;3.366;2022-08-04T09:03:16;46.05;;;21.95;;
20480;SDS011;10399;50.754;3.366;2022-08-04T09:09:24;44.28;;;20.52;;
20480;SDS011;10399;50.754;3.366;2022-08-04T09:14:57;52.22;;;25.38;;
20480;SDS011;10399;50.754;3.366;2022-08-04T09:17:50;48.42;;;22.58;;
20480;SDS011;10399;50.754;3.366;2022-08-04T09:20:31;41.20;;;20.25;;
20480;SDS011;10399;50.754;3.366;2022-08-04T09:25:37;51.45;;;23.67;;
20480;SDS011;10399;50.754;3.366;2022-08-04T09:28:18;44.15;;;22.55;;
20480;SDS011;10399;50.754;3.366;2022-08-04T09:31:11;46.38;;;22.08;;
20480;SDS011;10399;50.754;3.366;2022-08-04T09:33:51;40.67;;;21.95;;
20480;SDS011;10399;50.754;3.366;2022-08-04T09:36:41;42.50;;;22.50;;
20480;SDS011;10399;50.754;3.366;2022-08-04T09:39:32;39.17;;;20.40;;
20480;SDS011;10399;50.754;3.366;2022-08-04T09:45:22;34.85;;;19.88;;
20480;SDS011;10399;50.754;3.366;2022-08-04T09:48:11;37.15;;;20.02;;
20480;SDS011;10399;50.754;3.366;2022-08-04T09:50:42;35.35;;;20.10;;
20480;SDS011;10399;50.754;3.366;2022-08-04T09:55:54;39.58;;;20.88;;
20480;SDS011;10399;50.754;3.366;2022-08-04T10:01:24;38.17;;;21.15;;
20480;SDS011;10399;50.754;3.366;2022-08-04T10:04:12;37.65;;;20.50;;
20480;SDS011;10399;50.754;3.366;2022-08-04T10:27:21;37.33;;;19.05;;
20480;SDS011;10399;50.754;3.366;2022-08-04T10:30:04;33.25;;;18.27;;
20480;SDS011;10399;50.754;3.366;2022-08-04T10:32:54;43.83;;;19.08;;
20480;SDS011;10399;50.754;3.366;2022-08-04T10:35:45;31.55;;;17.48;;
20480;SDS011;10399;50.754;3.366;2022-08-04T10:38:22;35.50;;;18.23;;
20480;SDS011;10399;50.754;3.366;2022-08-04T10:40:57;31.10;;;17.05;;
20480;SDS011;10399;50.754;3.366;2022-08-04T10:43:57;29.45;;;16.95;;
20480;SDS011;10399;50.754;3.366;2022-08-04T10:46:34;31.23;;;18.40;;
20480;SDS011;10399;50.754;3.366;2022-08-04T10:49:09;33.25;;;17.15;;
20480;SDS011;10399;50.754;3.366;2022-08-04T10:51:52;30.65;;;17.98;;
20480;SDS011;10399;50.754;3.366;2022-08-04T11:00:10;28.95;;;16.95;;
20480;SDS011;10399;50.754;3.366;2022-08-04T11:05:46;31.40;;;17.98;;
20480;SDS011;10399;50.754;3.366;2022-08-04T11:08:17;25.60;;;15.45;;
20480;SDS011;10399;50.754;3.366;2022-08-04T11:10:56;28.90;;;17.25;;
20480;SDS011;10399;50.754;3.366;2022-08-04T11:25:00;28.27;;;20.20;;
20480;SDS011;10399;50.754;3.366;2022-08-04T11:30:29;30.83;;;20.98;;
20480;SDS011;10399;50.754;3.366;2022-08-04T11:33:05;27.25;;;19.20;;
20480;SDS011;10399;50.754;3.366;2022-08-04T11:38:15;30.77;;;18.20;;
20480;SDS011;10399;50.754;3.366;2022-08-04T11:40:57;24.90;;;15.80;;
20480;SDS011;10399;50.754;3.366;2022-08-04T11:43:40;26.20;;;15.13;;
20480;SDS011;10399;50.754;3.366;2022-08-04T11:46:31;24.73;;;16.55;;
20480;SDS011;10399;50.754;3.366;2022-08-04T11:49:09;28.42;;;16.48;;
20480;SDS011;10399;50.754;3.366;2022-08-04T11:51:43;30.65;;;15.40;;
20480;SDS011;10399;50.754;3.366;2022-08-04T11:54:11;24.60;;;13.20;;
20480;SDS011;10399;50.754;3.366;2022-08-04T11:56:39;23.65;;;13.55;;
20480;SDS011;10399;50.754;3.366;2022-08-04T11:59:06;27.35;;;13.95;;
20480;SDS011;10399;50.754;3.366;2022-08-04T12:01:41;22.35;;;12.73;;
20480;SDS011;10399;50.754;3.366;2022-08-04T12:04:49;18.13;;;12.32;;
20480;SDS011;10399;50.754;3.366;2022-08-04T12:13:27;19.10;;;9.93;;
20480;SDS011;10399;50.754;3.366;2022-08-04T12:16:14;16.10;;;9.68;;
20480;SDS011;10399;50.754;3.366;2022-08-04T12:19:00;12.95;;;9.63;;
20480;SDS011;10399;50.754;3.366;2022-08-04T12:24:21;19.95;;;9.68;;
20480;SDS011;10399;50.754;3.366;2022-08-04T12:26:55;14.18;;;9.25;;
20480;SDS011;10399;50.754;3.366;2022-08-04T12:29:25;15.07;;;9.35;;
20480;SDS011;10399;50.754;3.366;2022-08-04T12:31:57;20.73;;;9.70;;
20480;SDS011;10399;50.754;3.366;2022-08-04T12:34:34;15.52;;;8.65;;
20480;SDS011;10399;50.754;3.366;2022-08-04T12:39:51;17.92;;;7.88;;
20480;SDS011;10399;50.754;3.366;2022-08-04T12:42:41;17.45;;;7.78;;
20480;SDS011;10399;50.754;3.366;2022-08-04T12:45:25;16.58;;;6.97;;
20480;SDS011;10399;50.754;3.366;2022-08-04T12:47:56;13.18;;;6.00;;
20480;SDS011;10399;50.754;3.366;2022-08-04T12:50:24;14.43;;;6.70;;
20480;SDS011;10399;50.754;3.366;2022-08-04T12:52:53;15.80;;;7.70;;
20480;SDS011;10399;50.754;3.366;2022-08-04T12:55:33;13.05;;;5.95;;
20480;SDS011;10399;50.754;3.366;2022-08-04T12:58:02;8.70;;;5.00;;
20480;SDS011;10399;50.754;3.366;2022-08-04T13:00:41;9.93;;;5.28;;
20480;SDS011;10399;50.754;3.366;2022-08-04T13:03:14;11.13;;;4.82;;
20480;SDS011;10399;50.754;3.366;2022-08-04T13:05:42;12.20;;;5.15;;
20480;SDS011;10399;50.754;3.366;2022-08-04T13:08:11;12.07;;;5.60;;
20480;SDS011;10399;50.754;3.366;2022-08-04T13:10:40;13.30;;;5.45;;
20480;SDS011;10399;50.754;3.366;2022-08-04T13:13:13;12.52;;;5.13;;
20480;SDS011;10399;50.754;3.366;2022-08-04T13:15:43;13.85;;;5.15;;
20480;SDS011;10399;50.754;3.366;2022-08-04T13:18:22;11.52;;;4.55;;
20480;SDS011;10399;50.754;3.366;2022-08-04T13:21:06;10.50;;;3.92;;
20480;SDS011;10399;50.754;3.366;2022-08-04T13:23:48;8.85;;;3.50;;
20480;SDS011;10399;50.754;3.366;2022-08-04T13:26:36;9.57;;;4.22;;
20480;SDS011;10399;50.754;3.366;2022-08-04T13:29:21;9.15;;;5.10;;
20480;SDS011;10399;50.754;3.366;2022-08-04T13:32:20;11.60;;;6.18;;
20480;SDS011;10399;50.754;3.366;2022-08-04T13:34:53;10.32;;;4.50;;
20480;SDS011;10399;50.754;3.366;2022-08-04T13:37:23;8.82;;;5.53;;
20480;SDS011;10399;50.754;3.366;2022-08-04T13:39:55;9.48;;;4.53;;
20480;SDS011;10399;50.754;3.366;2022-08-04T13:42:24;10.48;;;4.78;;
20480;SDS011;10399;50.754;3.366;2022-08-04T13:44:54;10.50;;;3.95;;
20480;SDS011;10399;50.754;3.366;2022-08-04T13:47:33;8.88;;;3.97;;
20480;SDS011;10399;50.754;3.366;2022-08-04T13:50:11;9.68;;;4.72;;
20480;SDS011;10399;50.754;3.366;2022-08-04T13:52:54;8.40;;;4.47;;
20480;SDS011;10399;50.754;3.366;2022-08-04T13:55:33;19.42;;;5.20;;
20480;SDS011;10399;50.754;3.366;2022-08-04T13:58:03;9.95;;;3.95;;
20480;SDS011;10399;50.754;3.366;2022-08-04T14:01:08;4.78;;;3.40;;
20480;SDS011;10399;50.754;3.366;2022-08-04T14:03:45;8.52;;;3.90;;
20480;SDS011;10399;50.754;3.366;2022-08-04T14:09:16;6.75;;;3.70;;
20480;SDS011;10399;50.754;3.366;2022-08-04T14:11:51;10.27;;;3.60;;
20480;SDS011;10399;50.754;3.366;2022-08-04T14:14:47;9.13;;;3.92;;
20480;SDS011;10399;50.754;3.366;2022-08-04T14:17:17;6.65;;;3.83;;
20480;SDS011;10399;50.754;3.366;2022-08-04T14:19:57;10.45;;;3.90;;
20480;SDS011;10399;50.754;3.366;2022-08-04T14:28:00;9.25;;;4.18;;
20480;SDS011;10399;50.754;3.366;2022-08-04T14:30:29;11.63;;;4.38;;
20480;SDS011;10399;50.754;3.366;2022-08-04T14:33:00;14.82;;;4.47;;
20480;SDS011;10399;50.754;3.366;2022-08-04T14:35:57;10.57;;;3.92;;
20480;SDS011;10399;50.754;3.366;2022-08-04T14:38:42;10.35;;;3.78;;
20480;SDS011;10399;50.754;3.366;2022-08-04T14:41:29;6.30;;;2.97;;
20480;SDS011;10399;50.754;3.366;2022-08-04T14:44:11;8.02;;;3.00;;
20480;SDS011;10399;50.754;3.366;2022-08-04T14:46:58;12.35;;;3.88;;
20480;SDS011;10399;50.754;3.366;2022-08-04T14:49:25;5.30;;;2.97;;
20480;SDS011;10399;50.754;3.366;2022-08-04T14:51:58;8.27;;;3.20;;
20480;SDS011;10399;50.754;3.366;2022-08-04T14:54:30;8.40;;;3.30;;
20480;SDS011;10399;50.754;3.366;2022-08-04T14:57:05;7.18;;;3.03;;
20480;SDS011;10399;50.754;3.366;2022-08-04T14:59:43;8.60;;;3.33;;
20480;SDS011;10399;50.754;3.366;2022-08-04T15:02:27;7.72;;;3.05;;
20480;SDS011;10399;50.754;3.366;2022-08-04T15:04:55;7.93;;;3.00;;
20480;SDS011;10399;50.754;3.366;2022-08-04T15:07:23;8.18;;;3.40;;
20480;SDS011;10399;50.754;3.366;2022-08-04T15:09:50;10.73;;;3.20;;
20480;SDS011;10399;50.754;3.366;2022-08-04T15:12:18;9.75;;;3.15;;
20480;SDS011;10399;50.754;3.366;2022-08-04T15:14:46;9.48;;;3.00;;
20480;SDS011;10399;50.754;3.366;2022-08-04T15:17:13;7.40;;;2.90;;
20480;SDS011;10399;50.754;3.366;2022-08-04T15:19:55;10.80;;;2.80;;
20480;SDS011;10399;50.754;3.366;2022-08-04T15:22:23;6.57;;;2.90;;
20480;SDS011;10399;50.754;3.366;2022-08-04T15:24:51;4.63;;;2.67;;
20480;SDS011;10399;50.754;3.366;2022-08-04T15:27:20;11.77;;;3.00;;
20480;SDS011;10399;50.754;3.366;2022-08-04T15:29:54;8.20;;;2.60;;
20480;SDS011;10399;50.754;3.366;2022-08-04T15:32:35;6.07;;;2.78;;
20480;SDS011;10399;50.754;3.366;2022-08-04T15:35:07;7.80;;;2.95;;
20480;SDS011;10399;50.754;3.366;2022-08-04T15:46:11;13.35;;;3.67;;
20480;SDS011;10399;50.754;3.366;2022-08-04T15:49:07;7.60;;;2.55;;
20480;SDS011;10399;50.754;3.366;2022-08-04T15:52:02;9.45;;;2.63;;
20480;SDS011;10399;50.754;3.366;2022-08-04T15:54:48;6.85;;;2.67;;
20480;SDS011;10399;50.754;3.366;2022-08-04T15:57:58;7.30;;;2.50;;
20480;SDS011;10399;50.754;3.366;2022-08-04T16:21:32;7.55;;;3.00;;
20480;SDS011;10399;50.754;3.366;2022-08-04T16:24:15;6.65;;;3.38;;
20480;SDS011;10399;50.754;3.366;2022-08-04T16:26:52;9.05;;;3.65;;
20480;SDS011;10399;50.754;3.366;2022-08-04T16:37:20;5.15;;;2.95;;
20480;SDS011;10399;50.754;3.366;2022-08-04T16:40:22;8.45;;;3.20;;
20480;SDS011;10399;50.754;3.366;2022-08-04T16:43:13;8.32;;;3.38;;
20480;SDS011;10399;50.754;3.366;2022-08-04T16:45:59;4.15;;;2.80;;
20480;SDS011;10399;50.754;3.366;2022-08-04T16:48:29;8.80;;;2.85;;
20480;SDS011;10399;50.754;3.366;2022-08-04T16:50:59;7.45;;;3.17;;
20480;SDS011;10399;50.754;3.366;2022-08-04T16:53:38;8.77;;;3.17;;
20480;SDS011;10399;50.754;3.366;2022-08-04T16:56:32;6.47;;;3.10;;
20480;SDS011;10399;50.754;3.366;2022-08-04T16:59:07;5.00;;;2.97;;
20480;SDS011;10399;50.754;3.366;2022-08-04T17:01:36;6.47;;;3.10;;
20480;SDS011;10399;50.754;3.366;2022-08-04T17:04:12;7.75;;;3.10;;
20480;SDS011;10399;50.754;3.366;2022-08-04T17:06:40;9.88;;;3.10;;
20480;SDS011;10399;50.754;3.366;2022-08-04T17:09:12;7.32;;;2.97;;
20480;SDS011;10399;50.754;3.366;2022-08-04T17:11:41;8.45;;;2.40;;
20480;SDS011;10399;50.754;3.366;2022-08-04T17:14:10;5.78;;;2.58;;
20480;SDS011;10399;50.754;3.366;2022-08-04T17:16:39;10.48;;;2.50;;
20480;SDS011;10399;50.754;3.366;2022-08-04T17:19:07;5.70;;;2.65;;
20480;SDS011;10399;50.754;3.366;2022-08-04T17:21:51;7.35;;;2.28;;
20480;SDS011;10399;50.754;3.366;2022-08-04T17:24:27;9.48;;;3.10;;
20480;SDS011;10399;50.754;3.366;2022-08-04T17:26:55;12.25;;;3.00;;
20480;SDS011;10399;50.754;3.366;2022-08-04T17:29:25;4.35;;;2.35;;
20480;SDS011;10399;50.754;3.366;2022-08-04T17:32:15;5.97;;;2.20;;
20480;SDS011;10399;50.754;3.366;2022-08-04T17:34:45;6.65;;;2.63;;
20480;SDS011;10399;50.754;3.366;2022-08-04T17:37:16;7.78;;;2.33;;
20480;SDS011;10399;50.754;3.366;2022-08-04T17:40:09;6.90;;;2.30;;
20480;SDS011;10399;50.754;3.366;2022-08-04T17:42:38;9.98;;;2.20;;
20480;SDS011;10399;50.754;3.366;2022-08-04T17:45:11;5.03;;;2.33;;
20480;SDS011;10399;50.754;3.366;2022-08-04T17:48:01;13.63;;;2.85;;
20480;SDS011;10399;50.754;3.366;2022-08-04T17:50:34;6.50;;;2.60;;
20480;SDS011;10399;50.754;3.366;2022-08-04T17:53:08;9.55;;;2.63;;
20480;SDS011;10399;50.754;3.366;2022-08-04T17:55:42;12.23;;;3.05;;
20480;SDS011;10399;50.754;3.366;2022-08-04T17:58:13;5.43;;;2.38;;
20480;SDS011;10399;50.754;3.366;2022-08-04T18:00:47;9.52;;;2.85;;
20480;SDS011;10399;50.754;3.366;2022-08-04T18:03:43;7.43;;;2.80;;
20480;SDS011;10399;50.754;3.366;2022-08-04T18:06:18;9.63;;;2.80;;
20480;SDS011;10399;50.754;3.366;2022-08-04T18:08:50;7.05;;;2.50;;
20480;SDS011;10399;50.754;3.366;2022-08-04T18:11:50;6.68;;;2.70;;
20480;SDS011;10399;50.754;3.366;2022-08-04T18:14:18;8.68;;;3.42;;
20480;SDS011;10399;50.754;3.366;2022-08-04T18:16:54;5.97;;;2.83;;
20480;SDS011;10399;50.754;3.366;2022-08-04T18:19:21;6.35;;;2.40;;
20480;SDS011;10399;50.754;3.366;2022-08-04T18:21:48;6.32;;;2.20;;
20480;SDS011;10399;50.754;3.366;2022-08-04T18:24:26;4.25;;;2.22;;
20480;SDS011;10399;50.754;3.366;2022-08-04T18:27:15;5.53;;;1.77;;
20480;SDS011;10399;50.754;3.366;2022-08-04T18:29:43;5.07;;;2.28;;
20480;SDS011;10399;50.754;3.366;2022-08-04T18:32:30;7.22;;;2.20;;
20480;SDS011;10399;50.754;3.366;2022-08-04T18:34:59;8.73;;;2.80;;
20480;SDS011;10399;50.754;3.366;2022-08-04T18:37:32;4.72;;;2.03;;
20480;SDS011;10399;50.754;3.366;2022-08-04T18:40:20;5.60;;;2.08;;
20480;SDS011;10399;50.754;3.366;2022-08-04T18:43:00;9.35;;;2.13;;
20480;SDS011;10399;50.754;3.366;2022-08-04T18:45:29;7.80;;;2.67;;
20480;SDS011;10399;50.754;3.366;2022-08-04T18:48:00;5.90;;;2.25;;
20480;SDS011;10399;50.754;3.366;2022-08-04T18:50:40;3.72;;;1.50;;
20480;SDS011;10399;50.754;3.366;2022-08-04T18:53:28;7.30;;;2.20;;
20480;SDS011;10399;50.754;3.366;2022-08-04T18:56:15;6.53;;;1.85;;
20480;SDS011;10399;50.754;3.366;2022-08-04T18:58:58;5.55;;;1.75;;
20480;SDS011;10399;50.754;3.366;2022-08-04T19:01:26;9.45;;;1.92;;
20480;SDS011;10399;50.754;3.366;2022-08-04T19:04:13;3.60;;;1.50;;
20480;SDS011;10399;50.754;3.366;2022-08-04T19:07:00;2.88;;;1.63;;
20480;SDS011;10399;50.754;3.366;2022-08-04T19:09:48;5.32;;;2.20;;
20480;SDS011;10399;50.754;3.366;2022-08-04T19:12:16;4.88;;;1.80;;
20480;SDS011;10399;50.754;3.366;2022-08-04T19:14:56;5.50;;;2.00;;
20480;SDS011;10399;50.754;3.366;2022-08-04T19:17:36;7.85;;;1.67;;
20480;SDS011;10399;50.754;3.366;2022-08-04T19:20:23;4.60;;;1.70;;
20480;SDS011;10399;50.754;3.366;2022-08-04T19:22:52;5.20;;;1.50;;
20480;SDS011;10399;50.754;3.366;2022-08-04T19:25:39;2.85;;;1.65;;
20480;SDS011;10399;50.754;3.366;2022-08-04T19:28:28;3.00;;;1.95;;
20480;SDS011;10399;50.754;3.366;2022-08-04T19:31:00;7.20;;;1.80;;
20480;SDS011;10399;50.754;3.366;2022-08-04T19:33:29;4.75;;;2.10;;
20480;SDS011;10399;50.754;3.366;2022-08-04T19:36:16;4.07;;;1.92;;
20480;SDS011;10399;50.754;3.366;2022-08-04T19:38:43;6.88;;;2.03;;
20480;SDS011;10399;50.754;3.366;2022-08-04T19:41:10;5.45;;;2.00;;
20480;SDS011;10399;50.754;3.366;2022-08-04T19:43:40;3.60;;;1.60;;
20480;SDS011;10399;50.754;3.366;2022-08-04T19:46:09;4.70;;;2.00;;
20480;SDS011;10399;50.754;3.366;2022-08-04T19:48:37;5.45;;;2.13;;
20480;SDS011;10399;50.754;3.366;2022-08-04T19:51:05;4.88;;;1.77;;
20480;SDS011;10399;50.754;3.366;2022-08-04T19:53:33;4.65;;;2.00;;
20480;SDS011;10399;50.754;3.366;2022-08-04T19:56:08;3.53;;;1.63;;
20480;SDS011;10399;50.754;3.366;2022-08-04T19:58:35;6.40;;;1.83;;
20480;SDS011;10399;50.754;3.366;2022-08-04T20:01:03;6.40;;;2.22;;
20480;SDS011;10399;50.754;3.366;2022-08-04T20:03:50;7.13;;;1.90;;
20480;SDS011;10399;50.754;3.366;2022-08-04T20:06:36;4.15;;;1.80;;
20480;SDS011;10399;50.754;3.366;2022-08-04T20:09:03;4.20;;;1.90;;
20480;SDS011;10399;50.754;3.366;2022-08-04T20:11:50;5.97;;;1.95;;
20480;SDS011;10399;50.754;3.366;2022-08-04T20:14:18;7.63;;;1.92;;
20480;SDS011;10399;50.754;3.366;2022-08-04T20:16:58;5.68;;;1.90;;
20480;SDS011;10399;50.754;3.366;2022-08-04T20:19:26;5.35;;;1.60;;
20480;SDS011;10399;50.754;3.366;2022-08-04T20:21:55;6.15;;;2.17;;
20480;SDS011;10399;50.754;3.366;2022-08-04T20:24:22;4.97;;;1.90;;